createdAt,value
2022-08-26T00:02:07.196Z,12.98
2022-08-26T00:04:35.423Z,11.65
2022-08-26T00:07:03.795Z,12.45
2022-08-26T00:09:37.313Z,12.98
2022-08-26T00:12:09.308Z,11.90
2022-08-26T00:14:40.846Z,12.73
2022-08-26T00:17:09.428Z,12.27
2022-08-26T00:19:38.094Z,12.65
2022-08-26T00:22:06.172Z,13.20
2022-08-26T00:24:35.593Z,13.23
2022-08-26T00:27:03.768Z,12.50
2022-08-26T00:29:34.936Z,12.75
2022-08-26T00:32:06.776Z,12.13
2022-08-26T00:34:35.319Z,12.23
2022-08-26T00:37:03.560Z,13.45
2022-08-26T00:39:31.958Z,12.55
2022-08-26T00:42:01.404Z,12.93
2022-08-26T00:44:30.320Z,13.45
2022-08-26T00:47:02.606Z,13.43
2022-08-26T00:49:36.977Z,13.85
2022-08-26T00:52:25.114Z,13.77
2022-08-26T00:55:05.289Z,14.05
2022-08-26T00:57:35.121Z,13.73
2022-08-26T01:00:09.206Z,13.48
2022-08-26T01:02:37.199Z,14.23
2022-08-26T01:05:07.484Z,13.48
2022-08-26T01:07:35.751Z,14.15
2022-08-26T01:10:06.376Z,13.48
2022-08-26T01:12:41.033Z,13.85
2022-08-26T01:15:11.430Z,14.50
2022-08-26T01:17:39.616Z,14.07
2022-08-26T01:20:11.533Z,13.88
2022-08-26T01:22:50.409Z,14.32
2022-08-26T01:25:20.802Z,14.57
2022-08-26T01:27:49.582Z,15.02
2022-08-26T01:30:19.097Z,14.32
2022-08-26T01:32:47.742Z,15.25
2022-08-26T01:35:16.072Z,15.05
2022-08-26T01:37:46.126Z,14.57
2022-08-26T01:40:18.050Z,13.32
2022-08-26T01:42:47.007Z,14.43
2022-08-26T01:45:19.682Z,14.98
2022-08-26T01:47:49.039Z,15.18
2022-08-26T01:50:27.706Z,14.25
2022-08-26T01:53:02.129Z,13.95
2022-08-26T01:55:33.185Z,14.75
2022-08-26T01:58:05.800Z,14.63
2022-08-26T02:03:17.906Z,14.02
2022-08-26T02:05:47.476Z,14.45
2022-08-26T02:08:24.684Z,14.45
2022-08-26T02:10:54.576Z,15.38
2022-08-26T02:13:23.263Z,15.93
2022-08-26T02:15:52.692Z,15.25
2022-08-26T02:18:20.775Z,16.27
2022-08-26T02:20:51.625Z,16.55
2022-08-26T02:23:21.243Z,15.75
2022-08-26T02:25:56.788Z,16.75
2022-08-26T02:28:26.938Z,15.65
2022-08-26T02:30:55.725Z,15.15
2022-08-26T02:33:23.933Z,16.58
2022-08-26T02:35:52.941Z,15.98
2022-08-26T02:38:23.386Z,16.55
2022-08-26T02:40:51.735Z,16.83
2022-08-26T02:43:31.185Z,16.13
2022-08-26T02:46:01.735Z,16.50
2022-08-26T02:48:31.461Z,17.15
2022-08-26T02:51:00.873Z,16.48
2022-08-26T02:53:31.761Z,16.05
2022-08-26T02:56:00.531Z,17.30
2022-08-26T02:58:28.504Z,15.50
2022-08-26T03:00:56.543Z,16.85
2022-08-26T03:03:24.637Z,16.75
2022-08-26T03:05:52.971Z,16.77
2022-08-26T03:08:22.336Z,17.13
2022-08-26T03:10:52.569Z,17.02
2022-08-26T03:13:20.870Z,16.20
2022-08-26T03:15:49.167Z,17.33
2022-08-26T03:18:17.212Z,18.52
2022-08-26T03:20:45.547Z,18.60
2022-08-26T03:23:13.647Z,16.27
2022-08-26T03:25:42.223Z,16.98
2022-08-26T03:28:12.159Z,17.05
2022-08-26T03:30:45.318Z,16.98
2022-08-26T03:33:14.469Z,17.42
2022-08-26T03:35:44.393Z,18.00
2022-08-26T03:38:12.859Z,17.90
2022-08-26T03:40:42.465Z,18.27
2022-08-26T03:43:12.970Z,19.67
2022-08-26T03:45:41.869Z,18.45
2022-08-26T03:48:11.326Z,17.83
2022-08-26T03:50:40.122Z,18.63
2022-08-26T03:53:12.690Z,18.25
2022-08-26T03:55:41.372Z,18.75
2022-08-26T03:58:09.628Z,17.35
2022-08-26T04:00:39.340Z,18.23
2022-08-26T04:03:10.056Z,18.55
2022-08-26T04:05:38.957Z,19.73
2022-08-26T04:08:07.000Z,19.13
2022-08-26T04:10:38.316Z,22.08
2022-08-26T04:13:06.443Z,19.67
2022-08-26T04:15:34.459Z,22.52
2022-08-26T04:18:03.799Z,20.23
2022-08-26T04:20:31.962Z,19.90
2022-08-26T04:23:00.342Z,19.75
2022-08-26T04:25:28.569Z,18.50
2022-08-26T04:27:56.825Z,19.63
2022-08-26T04:30:25.628Z,19.58
2022-08-26T04:32:53.666Z,18.92
2022-08-26T04:35:26.010Z,18.55
2022-08-26T04:40:22.659Z,18.50
2022-08-26T04:42:51.243Z,19.13
2022-08-26T04:45:22.886Z,17.15
2022-08-26T04:47:54.431Z,18.03
2022-08-26T04:50:25.758Z,16.87
2022-08-26T04:52:55.329Z,16.90
2022-08-26T04:55:25.316Z,16.90
2022-08-26T04:58:08.707Z,17.95
2022-08-26T05:03:10.327Z,15.70
2022-08-26T05:05:41.295Z,14.45
2022-08-26T05:08:11.358Z,14.88
2022-08-26T05:10:41.545Z,14.27
2022-08-26T05:13:11.045Z,14.52
2022-08-26T05:15:40.563Z,13.95
2022-08-26T05:18:10.488Z,14.02
2022-08-26T05:20:42.399Z,14.27
2022-08-26T05:23:10.509Z,12.98
2022-08-26T05:25:40.449Z,13.85
2022-08-26T05:28:08.678Z,13.32
2022-08-26T05:30:36.900Z,13.55
2022-08-26T05:33:05.795Z,13.73
2022-08-26T05:35:34.333Z,13.07
2022-08-26T05:38:10.403Z,14.45
2022-08-26T05:40:42.073Z,13.93
2022-08-26T05:43:10.699Z,12.63
2022-08-26T05:45:44.837Z,12.43
2022-08-26T05:48:14.858Z,11.77
2022-08-26T05:50:46.776Z,12.32
2022-08-26T05:53:18.377Z,12.10
2022-08-26T05:55:48.855Z,11.73
2022-08-26T05:58:20.022Z,10.35
2022-08-26T06:00:57.605Z,9.83
2022-08-26T06:03:25.689Z,10.15
2022-08-26T06:05:53.915Z,10.75
2022-08-26T06:08:23.261Z,11.25
2022-08-26T06:10:53.460Z,9.27
2022-08-26T06:13:24.474Z,9.80
2022-08-26T06:15:52.686Z,10.30
2022-08-26T06:18:23.784Z,9.25
2022-08-26T06:20:57.850Z,9.20
2022-08-26T06:23:47.164Z,8.95
2022-08-26T06:26:16.722Z,10.10
2022-08-26T06:28:45.820Z,8.98
2022-08-26T06:31:14.382Z,8.82
2022-08-26T06:33:42.720Z,9.07
2022-08-26T06:36:14.301Z,9.23
2022-08-26T06:38:44.536Z,10.18
2022-08-26T06:41:12.489Z,8.95
2022-08-26T06:43:43.355Z,8.35
2022-08-26T06:46:14.240Z,8.50
2022-08-26T06:48:42.232Z,9.90
2022-08-26T06:51:13.953Z,8.95
2022-08-26T06:53:45.593Z,9.90
2022-08-26T06:56:15.725Z,8.93
2022-08-26T06:58:44.326Z,9.93
2022-08-26T07:01:18.119Z,9.38
2022-08-26T07:03:46.626Z,9.95
2022-08-26T07:06:14.889Z,9.23
2022-08-26T07:08:45.881Z,9.45
2022-08-26T07:11:15.653Z,9.07
2022-08-26T07:13:44.794Z,10.02
2022-08-26T07:16:16.368Z,9.10
2022-08-26T07:18:48.587Z,10.02
2022-08-26T07:21:18.291Z,10.23
2022-08-26T07:23:48.915Z,9.50
2022-08-26T07:26:19.556Z,9.80
2022-08-26T07:28:50.531Z,9.57
2022-08-26T07:31:22.987Z,9.55
2022-08-26T07:33:51.536Z,9.85
2022-08-26T07:36:20.452Z,9.43
2022-08-26T07:38:50.074Z,9.18
2022-08-26T07:41:20.131Z,9.43
2022-08-26T07:43:48.217Z,9.02
2022-08-26T07:46:27.037Z,9.57
2022-08-26T07:48:56.363Z,9.85
2022-08-26T07:51:24.824Z,9.48
2022-08-26T07:53:54.744Z,9.30
2022-08-26T07:56:22.999Z,9.60
2022-08-26T07:58:51.840Z,8.05
2022-08-26T08:01:20.545Z,9.57
2022-08-26T08:03:51.364Z,10.23
2022-08-26T08:06:20.191Z,7.97
2022-08-26T08:08:50.891Z,10.00
2022-08-26T08:11:21.562Z,8.10
2022-08-26T08:13:56.550Z,8.20
2022-08-26T08:16:26.102Z,8.00
2022-08-26T08:18:54.410Z,8.48
2022-08-26T08:21:24.315Z,7.82
2022-08-26T08:23:53.650Z,7.97
2022-08-26T08:26:24.696Z,8.07
2022-08-26T08:28:56.213Z,8.93
2022-08-26T08:31:52.092Z,8.98
2022-08-26T08:34:15.066Z,8.38
2022-08-26T08:36:43.266Z,8.70
2022-08-26T08:39:12.192Z,8.30
2022-08-26T08:41:52.792Z,9.07
2022-08-26T08:46:53.364Z,7.85
2022-08-26T08:49:22.233Z,8.05
2022-08-26T08:51:55.121Z,8.63
2022-08-26T08:54:26.318Z,7.47
2022-08-26T08:57:00.586Z,7.82
2022-08-26T08:59:32.851Z,8.40
2022-08-26T09:02:10.855Z,6.68
2022-08-26T09:05:04.605Z,7.05
2022-08-26T09:07:36.875Z,8.13
2022-08-26T09:10:14.915Z,7.75
2022-08-26T09:12:47.265Z,7.95
2022-08-26T09:15:18.852Z,8.45
2022-08-26T09:17:51.588Z,8.52
2022-08-26T09:20:29.697Z,8.15
2022-08-26T09:22:58.076Z,7.65
2022-08-26T09:25:26.156Z,7.57
2022-08-26T09:27:55.425Z,7.18
2022-08-26T09:30:26.500Z,7.72
2022-08-26T09:33:03.523Z,6.60
2022-08-26T09:35:40.031Z,7.97
2022-08-26T09:38:22.650Z,6.40
2022-08-26T09:41:00.273Z,6.72
2022-08-26T09:43:29.856Z,7.03
2022-08-26T09:46:14.123Z,7.95
2022-08-26T09:48:43.504Z,7.07
2022-08-26T09:51:28.303Z,7.10
2022-08-26T09:53:58.043Z,6.70
2022-08-26T09:56:28.317Z,7.60
2022-08-26T09:58:58.133Z,6.68
2022-08-26T10:01:30.702Z,8.10
2022-08-26T10:04:07.356Z,7.18
2022-08-26T10:06:39.124Z,7.30
2022-08-26T10:09:09.880Z,7.97
2022-08-26T10:11:42.442Z,8.38
2022-08-26T10:14:18.860Z,7.72
2022-08-26T10:16:51.222Z,8.23
2022-08-26T10:19:22.430Z,8.35
2022-08-26T10:21:54.094Z,8.43
2022-08-26T10:24:25.398Z,8.82
2022-08-26T10:27:01.157Z,8.10
2022-08-26T10:29:35.483Z,8.50
2022-08-26T10:32:08.303Z,8.05
2022-08-26T10:34:42.300Z,7.78
2022-08-26T10:37:15.569Z,8.02
2022-08-26T10:39:51.889Z,9.23
2022-08-26T10:42:28.857Z,8.77
2022-08-26T10:47:32.551Z,6.20
2022-08-26T10:52:39.390Z,6.90
2022-08-26T10:55:12.939Z,6.20
2022-08-26T10:57:45.728Z,7.15
2022-08-26T11:00:35.178Z,7.95
2022-08-26T11:03:09.470Z,7.70
2022-08-26T11:06:16.859Z,6.97
2022-08-26T11:08:48.930Z,6.70
2022-08-26T11:11:42.340Z,5.47
2022-08-26T11:14:10.951Z,5.50
2022-08-26T11:16:42.929Z,6.35
2022-08-26T11:19:13.972Z,5.68
2022-08-26T11:25:06.492Z,5.95
2022-08-26T11:27:59.531Z,6.30
2022-08-26T11:30:53.221Z,6.35
2022-08-26T11:33:57.977Z,6.63
2022-08-26T11:36:40.196Z,7.15
2022-08-26T11:39:18.403Z,14.60
2022-08-26T11:41:48.194Z,13.63
2022-08-26T11:44:22.849Z,11.48
2022-08-26T11:46:57.927Z,10.65
2022-08-26T11:49:28.412Z,11.25
2022-08-26T11:52:12.769Z,13.15
2022-08-26T11:54:41.132Z,14.52
2022-08-26T11:57:13.440Z,15.20
2022-08-26T12:02:15.883Z,14.75
2022-08-26T12:04:49.806Z,12.90
2022-08-26T12:07:23.804Z,12.52
2022-08-26T12:09:56.430Z,13.40
2022-08-26T12:12:31.718Z,10.88
2022-08-26T12:15:10.079Z,11.98
2022-08-26T12:17:38.709Z,12.43
2022-08-26T12:20:18.774Z,12.68
2022-08-26T12:22:47.950Z,16.42
2022-08-26T12:25:23.559Z,17.45
2022-08-26T12:27:54.052Z,18.15
2022-08-26T12:30:23.981Z,18.63
2022-08-26T12:32:58.202Z,17.58
2022-08-26T12:35:29.510Z,15.85
2022-08-26T12:37:57.831Z,17.55
2022-08-26T12:40:28.893Z,19.80
2022-08-26T12:42:59.173Z,24.73
2022-08-26T12:45:29.391Z,23.48
2022-08-26T12:48:01.395Z,26.85
2022-08-26T12:50:32.601Z,32.80
2022-08-26T12:53:03.190Z,32.33
2022-08-26T12:55:40.266Z,28.10
2022-08-26T12:58:13.622Z,29.75
2022-08-26T13:00:43.484Z,27.55
2022-08-26T13:03:38.277Z,24.00
2022-08-26T13:06:15.919Z,22.90
2022-08-26T13:08:45.480Z,23.75
2022-08-26T13:11:18.494Z,20.95
2022-08-26T13:13:47.775Z,22.35
2022-08-26T13:16:16.612Z,21.25
2022-08-26T13:18:44.996Z,19.52
2022-08-26T13:21:18.023Z,17.80
2022-08-26T13:23:46.065Z,18.27
2022-08-26T13:26:14.495Z,16.40
2022-08-26T13:28:43.168Z,16.33
2022-08-26T13:31:12.052Z,16.17
2022-08-26T13:33:40.400Z,15.75
2022-08-26T13:36:09.712Z,16.02
2022-08-26T13:38:39.020Z,16.15
2022-08-26T13:41:07.085Z,15.73
2022-08-26T13:43:35.608Z,15.70
2022-08-26T13:46:04.025Z,14.20
2022-08-26T13:48:34.413Z,14.70
2022-08-26T13:51:03.207Z,14.98
2022-08-26T13:53:36.371Z,14.18
2022-08-26T13:56:10.859Z,12.95
2022-08-26T13:58:39.170Z,16.13
2022-08-26T14:01:07.535Z,20.42
2022-08-26T14:03:35.997Z,21.30
2022-08-26T14:06:04.091Z,22.52
2022-08-26T14:08:32.783Z,22.55
2022-08-26T14:11:01.310Z,22.38
2022-08-26T14:13:30.697Z,24.75
2022-08-26T14:16:01.387Z,26.83
2022-08-26T14:18:31.032Z,23.98
2022-08-26T14:20:59.281Z,26.65
2022-08-26T14:23:27.618Z,25.52
2022-08-26T14:25:55.614Z,26.85
2022-08-26T14:28:23.624Z,25.33
2022-08-26T14:30:56.895Z,27.65
2022-08-26T14:33:28.700Z,29.50
2022-08-26T14:36:17.416Z,25.45
2022-08-26T14:38:45.466Z,25.10
2022-08-26T14:41:13.870Z,25.20
2022-08-26T14:43:45.395Z,24.80
2022-08-26T14:46:16.192Z,22.25
2022-08-26T14:48:44.538Z,23.00
2022-08-26T14:51:12.598Z,22.92
2022-08-26T14:53:58.487Z,22.70
2022-08-26T14:56:34.200Z,22.67
2022-08-26T14:59:02.380Z,20.75
2022-08-26T15:01:33.078Z,20.38
2022-08-26T15:04:01.352Z,21.13
2022-08-26T15:06:30.097Z,21.10
2022-08-26T15:08:58.355Z,22.50
2022-08-26T15:11:26.876Z,20.20
2022-08-26T15:13:55.293Z,21.98
2022-08-26T15:16:23.614Z,19.80
2022-08-26T15:18:53.139Z,20.80
2022-08-26T15:21:21.998Z,21.08
2022-08-26T15:23:51.562Z,19.85
2022-08-26T15:26:20.251Z,21.63
2022-08-26T15:28:48.522Z,21.98
2022-08-26T15:31:16.676Z,21.35
2022-08-26T15:33:44.836Z,20.45
2022-08-26T15:36:14.404Z,20.10
2022-08-26T15:38:42.898Z,18.02
2022-08-26T15:41:11.149Z,17.25
2022-08-26T15:43:39.405Z,15.68
2022-08-26T15:46:11.392Z,16.05
2022-08-26T15:48:39.845Z,14.32
2022-08-26T15:51:09.021Z,14.80
2022-08-26T15:53:38.311Z,16.10
2022-08-26T15:56:06.724Z,14.68
2022-08-26T15:58:36.335Z,14.98
2022-08-26T16:01:04.369Z,14.80
2022-08-26T16:03:32.369Z,14.10
2022-08-26T16:06:00.624Z,14.68
2022-08-26T16:08:28.955Z,14.23
2022-08-26T16:13:31.861Z,14.25
2022-08-26T16:16:09.523Z,17.20
2022-08-26T16:18:37.966Z,16.75
2022-08-26T16:21:13.795Z,16.92
2022-08-26T16:23:45.000Z,18.77
2022-08-26T16:26:16.891Z,17.00
2022-08-26T16:28:44.973Z,19.13
2022-08-26T16:31:13.336Z,18.23
2022-08-26T16:33:41.533Z,18.85
2022-08-26T16:36:11.872Z,20.10
2022-08-26T16:38:40.532Z,19.08
2022-08-26T16:41:09.618Z,20.10
2022-08-26T16:43:38.925Z,19.83
2022-08-26T16:46:07.805Z,18.42
2022-08-26T16:48:38.337Z,19.52
2022-08-26T16:51:06.883Z,19.52
2022-08-26T16:53:34.892Z,19.67
2022-08-26T16:56:02.864Z,20.20
2022-08-26T16:58:31.316Z,20.48
2022-08-26T17:01:01.197Z,21.40
2022-08-26T17:03:29.164Z,21.58
2022-08-26T17:05:57.297Z,22.52
2022-08-26T17:08:28.919Z,21.10
2022-08-26T17:10:59.971Z,21.33
2022-08-26T17:13:35.567Z,19.38
2022-08-26T17:16:06.358Z,20.95
2022-08-26T17:18:35.539Z,17.95
2022-08-26T17:21:06.048Z,20.13
2022-08-26T17:23:34.407Z,20.15
2022-08-26T17:26:02.607Z,21.25
2022-08-26T17:28:30.739Z,21.77
2022-08-26T17:30:58.926Z,21.02
2022-08-26T17:33:29.192Z,25.17
2022-08-26T17:35:57.400Z,24.30
2022-08-26T17:38:28.877Z,22.60
2022-08-26T17:40:57.078Z,23.38
2022-08-26T17:43:26.745Z,21.10
2022-08-26T17:45:59.106Z,22.90
2022-08-26T17:48:37.502Z,22.75
2022-08-26T17:51:08.708Z,22.70
2022-08-26T17:53:37.140Z,23.48
2022-08-26T17:56:07.346Z,27.42
2022-08-26T17:58:36.508Z,25.40
2022-08-26T18:01:06.045Z,23.63
2022-08-26T18:03:36.318Z,23.48
2022-08-26T18:06:09.459Z,24.75
2022-08-26T18:08:37.862Z,24.17
2022-08-26T18:11:09.353Z,24.20
2022-08-26T18:13:37.871Z,22.95
2022-08-26T18:16:14.057Z,23.73
2022-08-26T18:18:43.682Z,25.80
2022-08-26T18:21:16.542Z,23.88
2022-08-26T18:23:44.943Z,23.38
2022-08-26T18:26:17.599Z,23.42
2022-08-26T18:28:45.961Z,24.30
2022-08-26T18:31:15.282Z,24.35
2022-08-26T18:33:45.136Z,25.27
2022-08-26T18:36:17.024Z,26.08
2022-08-26T18:38:45.441Z,26.60
2022-08-26T18:41:14.591Z,27.10
2022-08-26T18:43:43.231Z,27.27
2022-08-26T18:46:11.782Z,27.23
2022-08-26T18:48:41.285Z,26.65
2022-08-26T18:51:16.925Z,27.60
2022-08-26T18:53:47.827Z,27.48
2022-08-26T18:56:18.157Z,27.25
2022-08-26T18:58:46.802Z,28.17
2022-08-26T19:01:15.771Z,29.85
2022-08-26T19:03:44.049Z,26.80
2022-08-26T19:06:20.020Z,27.45
2022-08-26T19:08:49.906Z,27.75
2022-08-26T19:11:32.645Z,29.20
2022-08-26T19:14:07.611Z,27.98
2022-08-26T19:16:36.549Z,30.15
2022-08-26T19:19:04.705Z,28.63
2022-08-26T19:21:35.683Z,29.60
2022-08-26T19:24:06.041Z,30.75
2022-08-26T19:26:34.948Z,31.13
2022-08-26T19:29:03.160Z,31.02
2022-08-26T19:31:31.274Z,32.28
2022-08-26T19:34:00.031Z,32.78
2022-08-26T19:36:29.625Z,34.05
2022-08-26T19:39:00.186Z,33.65
2022-08-26T19:41:37.037Z,34.90
2022-08-26T19:44:08.872Z,32.97
2022-08-26T19:49:05.507Z,36.72
2022-08-26T19:51:35.444Z,37.58
2022-08-26T19:54:05.258Z,35.88
2022-08-26T19:56:33.229Z,36.50
2022-08-26T19:59:01.266Z,39.60
2022-08-26T20:01:29.424Z,39.78
2022-08-26T20:03:57.504Z,36.92
2022-08-26T20:06:25.495Z,37.30
2022-08-26T20:08:53.941Z,38.35
2022-08-26T20:11:25.727Z,37.55
2022-08-26T20:13:54.089Z,37.63
2022-08-26T20:16:22.192Z,36.45
2022-08-26T20:19:07.597Z,37.75
2022-08-26T20:21:38.181Z,39.58
2022-08-26T20:24:08.812Z,38.80
2022-08-26T20:26:39.770Z,38.15
2022-08-26T20:29:08.820Z,41.75
2022-08-26T20:31:36.946Z,38.95
2022-08-26T20:34:05.598Z,38.08
2022-08-26T20:36:34.636Z,39.50
2022-08-26T20:39:02.681Z,40.53
2022-08-26T20:41:31.464Z,38.78
2022-08-26T20:44:01.873Z,41.50
2022-08-26T20:46:30.151Z,39.10
2022-08-26T20:48:58.686Z,39.17
2022-08-26T20:51:27.935Z,40.97
2022-08-26T20:53:56.072Z,39.58
2022-08-26T20:56:26.519Z,40.97
2022-08-26T20:58:56.228Z,40.72
2022-08-26T21:01:28.073Z,41.08
2022-08-26T21:03:57.534Z,43.85
2022-08-26T21:06:25.701Z,43.80
2022-08-26T21:08:54.625Z,44.22
2022-08-26T21:11:22.905Z,41.05
2022-08-26T21:14:15.673Z,43.95
2022-08-26T21:16:41.480Z,40.70
2022-08-26T21:19:11.577Z,43.85
2022-08-26T21:21:40.670Z,42.72
2022-08-26T21:24:09.035Z,42.22
2022-08-26T21:26:37.516Z,40.95
2022-08-26T21:29:06.707Z,42.45
2022-08-26T21:31:35.020Z,42.25
2022-08-26T21:34:04.566Z,43.17
2022-08-26T21:36:32.540Z,42.05
2022-08-26T21:39:01.425Z,43.05
2022-08-26T21:41:29.630Z,42.28
2022-08-26T21:43:59.567Z,40.45
2022-08-26T21:46:29.613Z,43.40
2022-08-26T21:48:59.047Z,41.22
2022-08-26T21:51:30.325Z,42.92
2022-08-26T21:53:59.563Z,42.75
2022-08-26T21:56:29.475Z,45.17
2022-08-26T21:58:58.894Z,43.95
2022-08-26T22:01:32.454Z,45.88
2022-08-26T22:04:00.509Z,46.38
2022-08-26T22:06:30.032Z,46.10
2022-08-26T22:08:58.456Z,45.97
2022-08-26T22:11:27.409Z,43.75
2022-08-26T22:13:56.787Z,48.17
2022-08-26T22:16:27.065Z,44.50
2022-08-26T22:18:55.359Z,47.13
2022-08-26T22:21:25.431Z,47.28
2022-08-26T22:23:58.045Z,46.55
2022-08-26T22:26:28.206Z,47.75
2022-08-26T22:28:59.063Z,50.40
2022-08-26T22:31:35.258Z,51.38
2022-08-26T22:34:07.385Z,50.22
2022-08-26T22:36:35.513Z,47.47
2022-08-26T22:39:10.486Z,48.78
2022-08-26T22:41:38.662Z,50.63
2022-08-26T22:44:06.674Z,53.88
2022-08-26T22:46:36.765Z,52.97
2022-08-26T22:49:05.326Z,53.38
2022-08-26T22:51:33.378Z,54.75
2022-08-26T22:54:01.587Z,50.65
2022-08-26T22:56:30.952Z,53.88
2022-08-26T22:58:59.026Z,53.97
2022-08-26T23:01:27.523Z,54.72
2022-08-26T23:03:55.555Z,52.95
2022-08-26T23:06:24.175Z,53.35
2022-08-26T23:08:53.118Z,52.58
2022-08-26T23:11:21.076Z,53.05
2022-08-26T23:13:50.381Z,55.58
2022-08-26T23:16:18.455Z,54.95
2022-08-26T23:18:46.999Z,54.15
2022-08-26T23:21:15.207Z,56.80
2022-08-26T23:23:44.245Z,58.63
2022-08-26T23:26:17.447Z,59.88
2022-08-26T23:28:46.150Z,57.88
2022-08-26T23:31:15.538Z,60.67
2022-08-26T23:34:01.000Z,58.30
2022-08-26T23:36:31.125Z,58.95
2022-08-26T23:39:03.846Z,58.15
2022-08-26T23:41:32.208Z,59.17
2022-08-26T23:44:03.403Z,57.63
2022-08-26T23:46:33.751Z,59.58
2022-08-26T23:49:02.045Z,56.38
2022-08-26T23:51:47.328Z,58.58
2022-08-26T23:54:16.531Z,56.78
2022-08-26T23:56:44.796Z,51.72
2022-08-26T23:59:12.838Z,57.08
